sensor_id;sensor_type;location;lat;lon;timestamp;P1;durP1;ratioP1;P2;durP2;ratioP2
7410;SDS011;3747;48.628;9.058;2023-09-08T00:02:22;8.77;;;7.87;;
7410;SDS011;3747;48.628;9.058;2023-09-08T00:04:50;7.23;;;6.53;;
7410;SDS011;3747;48.628;9.058;2023-09-08T00:07:17;7.63;;;6.87;;
7410;SDS011;3747;48.628;9.058;2023-09-08T00:09:45;8.77;;;7.87;;
7410;SDS011;3747;48.628;9.058;2023-09-08T00:12:13;8.60;;;7.23;;
7410;SDS011;3747;48.628;9.058;2023-09-08T00:14:41;9.93;;;7.90;;
7410;SDS011;3747;48.628;9.058;2023-09-08T00:17:08;7.70;;;6.83;;
7410;SDS011;3747;48.628;9.058;2023-09-08T00:19:35;7.63;;;6.93;;
7410;SDS011;3747;48.628;9.058;2023-09-08T00:22:03;7.87;;;6.33;;
7410;SDS011;3747;48.628;9.058;2023-09-08T00:24:32;7.57;;;6.77;;
7410;SDS011;3747;48.628;9.058;2023-09-08T00:26:59;8.00;;;7.03;;
7410;SDS011;3747;48.628;9.058;2023-09-08T00:29:27;7.37;;;6.40;;
7410;SDS011;3747;48.628;9.058;2023-09-08T00:31:54;7.53;;;6.83;;
7410;SDS011;3747;48.628;9.058;2023-09-08T00:34:21;8.17;;;7.10;;
7410;SDS011;3747;48.628;9.058;2023-09-08T00:36:48;7.67;;;6.97;;
7410;SDS011;3747;48.628;9.058;2023-09-08T00:39:16;8.67;;;7.00;;
7410;SDS011;3747;48.628;9.058;2023-09-08T00:41:43;9.83;;;7.90;;
7410;SDS011;3747;48.628;9.058;2023-09-08T00:44:10;8.30;;;6.90;;
7410;SDS011;3747;48.628;9.058;2023-09-08T00:46:38;7.80;;;7.00;;
7410;SDS011;3747;48.628;9.058;2023-09-08T00:49:05;6.63;;;6.03;;
7410;SDS011;3747;48.628;9.058;2023-09-08T00:51:34;8.87;;;7.43;;
7410;SDS011;3747;48.628;9.058;2023-09-08T00:54:03;7.20;;;5.90;;
7410;SDS011;3747;48.628;9.058;2023-09-08T00:56:31;8.33;;;6.63;;
7410;SDS011;3747;48.628;9.058;2023-09-08T00:58:58;7.23;;;6.53;;
7410;SDS011;3747;48.628;9.058;2023-09-08T01:01:25;7.97;;;7.10;;
7410;SDS011;3747;48.628;9.058;2023-09-08T01:03:54;7.33;;;6.63;;
7410;SDS011;3747;48.628;9.058;2023-09-08T01:06:21;8.33;;;6.90;;
7410;SDS011;3747;48.628;9.058;2023-09-08T01:08:49;9.00;;;8.10;;
7410;SDS011;3747;48.628;9.058;2023-09-08T01:11:16;9.57;;;7.60;;
7410;SDS011;3747;48.628;9.058;2023-09-08T01:13:44;12.07;;;7.83;;
7410;SDS011;3747;48.628;9.058;2023-09-08T01:16:12;7.43;;;6.73;;
7410;SDS011;3747;48.628;9.058;2023-09-08T01:18:39;8.30;;;7.47;;
7410;SDS011;3747;48.628;9.058;2023-09-08T01:21:23;8.97;;;7.30;;
7410;SDS011;3747;48.628;9.058;2023-09-08T01:24:11;7.53;;;6.80;;
7410;SDS011;3747;48.628;9.058;2023-09-08T01:26:55;6.87;;;6.23;;
7410;SDS011;3747;48.628;9.058;2023-09-08T01:29:23;7.63;;;6.87;;
7410;SDS011;3747;48.628;9.058;2023-09-08T01:31:50;8.13;;;7.10;;
7410;SDS011;3747;48.628;9.058;2023-09-08T01:34:18;7.67;;;6.90;;
7410;SDS011;3747;48.628;9.058;2023-09-08T01:36:45;7.43;;;6.73;;
7410;SDS011;3747;48.628;9.058;2023-09-08T01:39:12;8.40;;;7.17;;
7410;SDS011;3747;48.628;9.058;2023-09-08T01:41:39;7.67;;;6.97;;
7410;SDS011;3747;48.628;9.058;2023-09-08T01:44:07;8.33;;;6.70;;
7410;SDS011;3747;48.628;9.058;2023-09-08T01:46:35;8.07;;;7.03;;
7410;SDS011;3747;48.628;9.058;2023-09-08T01:49:03;6.80;;;6.20;;
7410;SDS011;3747;48.628;9.058;2023-09-08T01:51:30;7.30;;;6.60;;
7410;SDS011;3747;48.628;9.058;2023-09-08T01:53:57;7.23;;;6.60;;
7410;SDS011;3747;48.628;9.058;2023-09-08T01:56:23;7.37;;;6.47;;
7410;SDS011;3747;48.628;9.058;2023-09-08T01:58:51;8.10;;;6.97;;
7410;SDS011;3747;48.628;9.058;2023-09-08T02:01:19;10.83;;;7.77;;
7410;SDS011;3747;48.628;9.058;2023-09-08T02:03:46;8.37;;;7.07;;
7410;SDS011;3747;48.628;9.058;2023-09-08T02:06:13;9.33;;;8.17;;
7410;SDS011;3747;48.628;9.058;2023-09-08T02:08:40;9.20;;;7.43;;
7410;SDS011;3747;48.628;9.058;2023-09-08T02:11:06;11.83;;;8.13;;
7410;SDS011;3747;48.628;9.058;2023-09-08T02:13:33;9.53;;;8.53;;
7410;SDS011;3747;48.628;9.058;2023-09-08T02:16:00;10.37;;;8.80;;
7410;SDS011;3747;48.628;9.058;2023-09-08T02:18:28;8.30;;;7.50;;
7410;SDS011;3747;48.628;9.058;2023-09-08T02:20:55;11.77;;;8.57;;
7410;SDS011;3747;48.628;9.058;2023-09-08T02:23:24;9.00;;;8.07;;
7410;SDS011;3747;48.628;9.058;2023-09-08T02:25:51;9.90;;;8.30;;
7410;SDS011;3747;48.628;9.058;2023-09-08T02:28:18;9.23;;;8.33;;
7410;SDS011;3747;48.628;9.058;2023-09-08T02:30:45;10.23;;;9.13;;
7410;SDS011;3747;48.628;9.058;2023-09-08T02:33:12;9.70;;;8.77;;
7410;SDS011;3747;48.628;9.058;2023-09-08T02:35:40;9.40;;;8.03;;
7410;SDS011;3747;48.628;9.058;2023-09-08T02:38:07;9.53;;;8.63;;
7410;SDS011;3747;48.628;9.058;2023-09-08T02:40:34;8.73;;;7.83;;
7410;SDS011;3747;48.628;9.058;2023-09-08T02:43:01;8.50;;;7.53;;
7410;SDS011;3747;48.628;9.058;2023-09-08T02:45:28;9.40;;;8.50;;
7410;SDS011;3747;48.628;9.058;2023-09-08T02:47:55;10.10;;;9.10;;
7410;SDS011;3747;48.628;9.058;2023-09-08T02:50:22;10.57;;;8.97;;
7410;SDS011;3747;48.628;9.058;2023-09-08T02:52:51;9.70;;;8.70;;
7410;SDS011;3747;48.628;9.058;2023-09-08T02:55:17;10.00;;;8.57;;
7410;SDS011;3747;48.628;9.058;2023-09-08T02:57:44;10.27;;;9.20;;
7410;SDS011;3747;48.628;9.058;2023-09-08T03:00:11;9.10;;;8.20;;
7410;SDS011;3747;48.628;9.058;2023-09-08T03:02:39;10.80;;;9.70;;
7410;SDS011;3747;48.628;9.058;2023-09-08T03:05:06;10.17;;;9.00;;
7410;SDS011;3747;48.628;9.058;2023-09-08T03:07:33;10.60;;;9.50;;
7410;SDS011;3747;48.628;9.058;2023-09-08T03:10:04;10.07;;;9.00;;
7410;SDS011;3747;48.628;9.058;2023-09-08T03:12:32;11.03;;;8.63;;
7410;SDS011;3747;48.628;9.058;2023-09-08T03:15:00;9.63;;;8.63;;
7410;SDS011;3747;48.628;9.058;2023-09-08T03:17:27;11.67;;;8.97;;
7410;SDS011;3747;48.628;9.058;2023-09-08T03:19:54;12.93;;;9.60;;
7410;SDS011;3747;48.628;9.058;2023-09-08T03:22:21;10.40;;;9.30;;
7410;SDS011;3747;48.628;9.058;2023-09-08T03:24:49;11.17;;;9.10;;
7410;SDS011;3747;48.628;9.058;2023-09-08T03:27:18;11.83;;;9.30;;
7410;SDS011;3747;48.628;9.058;2023-09-08T03:29:45;11.43;;;8.77;;
7410;SDS011;3747;48.628;9.058;2023-09-08T03:32:12;11.07;;;8.80;;
7410;SDS011;3747;48.628;9.058;2023-09-08T03:34:39;10.57;;;8.43;;
7410;SDS011;3747;48.628;9.058;2023-09-08T03:37:06;10.13;;;8.30;;
7410;SDS011;3747;48.628;9.058;2023-09-08T03:39:33;12.07;;;8.87;;
7410;SDS011;3747;48.628;9.058;2023-09-08T03:42:00;13.03;;;9.70;;
7410;SDS011;3747;48.628;9.058;2023-09-08T03:44:29;13.40;;;10.47;;
7410;SDS011;3747;48.628;9.058;2023-09-08T03:46:55;15.90;;;11.20;;
7410;SDS011;3747;48.628;9.058;2023-09-08T03:49:22;15.17;;;12.03;;
7410;SDS011;3747;48.628;9.058;2023-09-08T03:51:49;16.50;;;13.07;;
7410;SDS011;3747;48.628;9.058;2023-09-08T03:54:16;13.37;;;11.50;;
7410;SDS011;3747;48.628;9.058;2023-09-08T03:56:43;12.03;;;10.67;;
7410;SDS011;3747;48.628;9.058;2023-09-08T03:59:09;13.87;;;11.73;;
7410;SDS011;3747;48.628;9.058;2023-09-08T04:01:38;12.53;;;11.30;;
7410;SDS011;3747;48.628;9.058;2023-09-08T04:04:04;12.23;;;11.03;;
7410;SDS011;3747;48.628;9.058;2023-09-08T04:06:31;12.67;;;11.30;;
7410;SDS011;3747;48.628;9.058;2023-09-08T04:08:58;16.83;;;14.27;;
7410;SDS011;3747;48.628;9.058;2023-09-08T04:11:25;24.13;;;18.43;;
7410;SDS011;3747;48.628;9.058;2023-09-08T04:13:52;18.33;;;14.90;;
7410;SDS011;3747;48.628;9.058;2023-09-08T04:16:19;41.63;;;30.13;;
7410;SDS011;3747;48.628;9.058;2023-09-08T04:18:47;59.03;;;40.43;;
7410;SDS011;3747;48.628;9.058;2023-09-08T04:21:14;59.03;;;42.10;;
7410;SDS011;3747;48.628;9.058;2023-09-08T04:23:40;49.83;;;34.57;;
7410;SDS011;3747;48.628;9.058;2023-09-08T04:26:07;34.77;;;25.77;;
7410;SDS011;3747;48.628;9.058;2023-09-08T04:28:34;23.30;;;18.47;;
7410;SDS011;3747;48.628;9.058;2023-09-08T04:31:01;21.27;;;16.17;;
7410;SDS011;3747;48.628;9.058;2023-09-08T04:33:29;21.63;;;17.00;;
7410;SDS011;3747;48.628;9.058;2023-09-08T04:35:57;19.50;;;16.23;;
7410;SDS011;3747;48.628;9.058;2023-09-08T04:38:24;18.93;;;16.60;;
7410;SDS011;3747;48.628;9.058;2023-09-08T04:40:51;19.03;;;15.27;;
7410;SDS011;3747;48.628;9.058;2023-09-08T04:43:18;19.30;;;17.17;;
7410;SDS011;3747;48.628;9.058;2023-09-08T04:45:44;21.53;;;16.37;;
7410;SDS011;3747;48.628;9.058;2023-09-08T04:48:11;20.23;;;15.90;;
7410;SDS011;3747;48.628;9.058;2023-09-08T04:50:38;20.30;;;15.10;;
7410;SDS011;3747;48.628;9.058;2023-09-08T04:53:06;18.03;;;13.07;;
7410;SDS011;3747;48.628;9.058;2023-09-08T04:55:33;14.77;;;12.70;;
7410;SDS011;3747;48.628;9.058;2023-09-08T04:58:00;17.43;;;13.67;;
7410;SDS011;3747;48.628;9.058;2023-09-08T05:00:27;17.33;;;14.33;;
7410;SDS011;3747;48.628;9.058;2023-09-08T05:02:54;17.30;;;14.43;;
7410;SDS011;3747;48.628;9.058;2023-09-08T05:05:21;17.00;;;14.80;;
7410;SDS011;3747;48.628;9.058;2023-09-08T05:07:48;16.50;;;14.70;;
7410;SDS011;3747;48.628;9.058;2023-09-08T05:10:18;17.87;;;15.37;;
7410;SDS011;3747;48.628;9.058;2023-09-08T05:12:45;19.37;;;16.33;;
7410;SDS011;3747;48.628;9.058;2023-09-08T05:15:12;24.17;;;18.07;;
7410;SDS011;3747;48.628;9.058;2023-09-08T05:17:41;24.07;;;18.70;;
7410;SDS011;3747;48.628;9.058;2023-09-08T05:20:08;21.63;;;16.97;;
7410;SDS011;3747;48.628;9.058;2023-09-08T05:22:36;21.77;;;16.40;;
7410;SDS011;3747;48.628;9.058;2023-09-08T05:25:03;22.70;;;16.23;;
7410;SDS011;3747;48.628;9.058;2023-09-08T05:27:32;19.63;;;16.27;;
7410;SDS011;3747;48.628;9.058;2023-09-08T05:29:59;19.33;;;16.10;;
7410;SDS011;3747;48.628;9.058;2023-09-08T05:32:26;20.23;;;16.03;;
7410;SDS011;3747;48.628;9.058;2023-09-08T05:34:53;19.63;;;15.23;;
7410;SDS011;3747;48.628;9.058;2023-09-08T05:37:20;23.43;;;17.80;;
7410;SDS011;3747;48.628;9.058;2023-09-08T05:39:46;23.90;;;18.23;;
7410;SDS011;3747;48.628;9.058;2023-09-08T05:42:13;19.53;;;16.80;;
7410;SDS011;3747;48.628;9.058;2023-09-08T05:44:41;22.47;;;17.47;;
7410;SDS011;3747;48.628;9.058;2023-09-08T05:47:10;27.07;;;17.87;;
7410;SDS011;3747;48.628;9.058;2023-09-08T05:49:37;21.53;;;17.57;;
7410;SDS011;3747;48.628;9.058;2023-09-08T05:52:03;18.90;;;16.50;;
7410;SDS011;3747;48.628;9.058;2023-09-08T05:54:30;19.40;;;15.23;;
7410;SDS011;3747;48.628;9.058;2023-09-08T05:56:57;20.37;;;16.70;;
7410;SDS011;3747;48.628;9.058;2023-09-08T05:59:24;19.47;;;16.50;;
7410;SDS011;3747;48.628;9.058;2023-09-08T06:01:53;16.60;;;14.83;;
7410;SDS011;3747;48.628;9.058;2023-09-08T06:04:20;20.93;;;14.87;;
7410;SDS011;3747;48.628;9.058;2023-09-08T06:06:46;16.43;;;14.50;;
7410;SDS011;3747;48.628;9.058;2023-09-08T06:09:13;17.90;;;14.97;;
7410;SDS011;3747;48.628;9.058;2023-09-08T06:11:41;16.70;;;13.77;;
7410;SDS011;3747;48.628;9.058;2023-09-08T06:14:08;18.27;;;13.40;;
7410;SDS011;3747;48.628;9.058;2023-09-08T06:16:35;16.17;;;14.00;;
7410;SDS011;3747;48.628;9.058;2023-09-08T06:19:03;16.20;;;13.33;;
7410;SDS011;3747;48.628;9.058;2023-09-08T06:21:30;15.90;;;13.17;;
7410;SDS011;3747;48.628;9.058;2023-09-08T06:23:57;14.87;;;12.93;;
7410;SDS011;3747;48.628;9.058;2023-09-08T06:26:24;14.10;;;12.10;;
7410;SDS011;3747;48.628;9.058;2023-09-08T06:28:51;13.33;;;11.93;;
7410;SDS011;3747;48.628;9.058;2023-09-08T06:31:18;12.70;;;11.40;;
7410;SDS011;3747;48.628;9.058;2023-09-08T06:33:45;13.37;;;11.97;;
7410;SDS011;3747;48.628;9.058;2023-09-08T06:36:14;13.33;;;12.00;;
7410;SDS011;3747;48.628;9.058;2023-09-08T06:38:41;12.73;;;11.53;;
7410;SDS011;3747;48.628;9.058;2023-09-08T06:41:08;12.50;;;10.17;;
7410;SDS011;3747;48.628;9.058;2023-09-08T06:43:36;12.73;;;11.43;;
7410;SDS011;3747;48.628;9.058;2023-09-08T06:46:03;14.83;;;12.63;;
7410;SDS011;3747;48.628;9.058;2023-09-08T06:48:30;10.97;;;9.90;;
7410;SDS011;3747;48.628;9.058;2023-09-08T06:50:57;10.60;;;9.07;;
7410;SDS011;3747;48.628;9.058;2023-09-08T06:53:26;9.60;;;8.37;;
7410;SDS011;3747;48.628;9.058;2023-09-08T06:55:53;10.43;;;8.23;;
7410;SDS011;3747;48.628;9.058;2023-09-08T06:58:20;8.23;;;7.53;;
7410;SDS011;3747;48.628;9.058;2023-09-08T07:00:47;8.70;;;7.90;;
7410;SDS011;3747;48.628;9.058;2023-09-08T07:03:18;8.67;;;6.93;;
7410;SDS011;3747;48.628;9.058;2023-09-08T07:05:46;7.30;;;6.40;;
7410;SDS011;3747;48.628;9.058;2023-09-08T07:08:13;7.60;;;6.93;;
7410;SDS011;3747;48.628;9.058;2023-09-08T07:10:42;6.53;;;6.00;;
7410;SDS011;3747;48.628;9.058;2023-09-08T07:13:09;10.30;;;6.70;;
7410;SDS011;3747;48.628;9.058;2023-09-08T07:15:36;6.90;;;6.30;;
7410;SDS011;3747;48.628;9.058;2023-09-08T07:18:04;7.40;;;6.17;;
7410;SDS011;3747;48.628;9.058;2023-09-08T07:20:31;6.90;;;6.20;;
7410;SDS011;3747;48.628;9.058;2023-09-08T07:22:58;7.03;;;6.40;;
7410;SDS011;3747;48.628;9.058;2023-09-08T07:25:25;5.87;;;5.20;;
7410;SDS011;3747;48.628;9.058;2023-09-08T07:27:54;6.90;;;6.40;;
7410;SDS011;3747;48.628;9.058;2023-09-08T07:30:21;6.33;;;5.80;;
7410;SDS011;3747;48.628;9.058;2023-09-08T07:32:48;8.30;;;6.03;;
7410;SDS011;3747;48.628;9.058;2023-09-08T07:35:15;6.63;;;6.13;;
7410;SDS011;3747;48.628;9.058;2023-09-08T07:37:42;6.00;;;5.47;;
7410;SDS011;3747;48.628;9.058;2023-09-08T07:40:09;6.83;;;6.10;;
7410;SDS011;3747;48.628;9.058;2023-09-08T07:42:37;6.13;;;5.53;;
7410;SDS011;3747;48.628;9.058;2023-09-08T07:45:07;5.47;;;4.97;;
7410;SDS011;3747;48.628;9.058;2023-09-08T07:47:35;5.97;;;5.23;;
7410;SDS011;3747;48.628;9.058;2023-09-08T07:50:15;6.20;;;5.40;;
7410;SDS011;3747;48.628;9.058;2023-09-08T07:52:44;6.55;;;5.97;;
7410;SDS011;3747;48.628;9.058;2023-09-08T07:55:11;5.45;;;5.05;;
7410;SDS011;3747;48.628;9.058;2023-09-08T07:57:38;5.88;;;5.45;;
7410;SDS011;3747;48.628;9.058;2023-09-08T08:00:08;6.43;;;5.78;;
7410;SDS011;3747;48.628;9.058;2023-09-08T08:02:36;6.55;;;5.97;;
7410;SDS011;3747;48.628;9.058;2023-09-08T08:05:04;6.88;;;5.22;;
7410;SDS011;3747;48.628;9.058;2023-09-08T08:07:32;9.52;;;5.93;;
7410;SDS011;3747;48.628;9.058;2023-09-08T08:09:59;6.68;;;6.13;;
7410;SDS011;3747;48.628;9.058;2023-09-08T08:12:26;5.90;;;5.47;;
7410;SDS011;3747;48.628;9.058;2023-09-08T08:14:53;6.85;;;6.30;;
7410;SDS011;3747;48.628;9.058;2023-09-08T08:17:21;6.20;;;5.63;;
7410;SDS011;3747;48.628;9.058;2023-09-08T08:19:48;6.45;;;5.85;;
7410;SDS011;3747;48.628;9.058;2023-09-08T08:22:15;5.38;;;4.97;;
7410;SDS011;3747;48.628;9.058;2023-09-08T08:24:42;5.28;;;4.88;;
7410;SDS011;3747;48.628;9.058;2023-09-08T08:27:11;7.40;;;5.75;;
7410;SDS011;3747;48.628;9.058;2023-09-08T08:29:38;6.53;;;5.20;;
7410;SDS011;3747;48.628;9.058;2023-09-08T08:32:05;5.65;;;5.20;;
7410;SDS011;3747;48.628;9.058;2023-09-08T08:34:33;5.93;;;5.25;;
7410;SDS011;3747;48.628;9.058;2023-09-08T08:37:00;5.57;;;5.07;;
7410;SDS011;3747;48.628;9.058;2023-09-08T08:39:27;5.30;;;4.82;;
7410;SDS011;3747;48.628;9.058;2023-09-08T08:41:54;5.05;;;4.57;;
7410;SDS011;3747;48.628;9.058;2023-09-08T08:44:21;5.50;;;5.03;;
7410;SDS011;3747;48.628;9.058;2023-09-08T08:46:49;5.40;;;4.88;;
7410;SDS011;3747;48.628;9.058;2023-09-08T08:49:17;5.43;;;4.93;;
7410;SDS011;3747;48.628;9.058;2023-09-08T08:51:47;5.25;;;4.85;;
7410;SDS011;3747;48.628;9.058;2023-09-08T08:54:16;5.03;;;4.63;;
7410;SDS011;3747;48.628;9.058;2023-09-08T08:56:43;6.05;;;5.57;;
7410;SDS011;3747;48.628;9.058;2023-09-08T08:59:10;5.63;;;5.13;;
7410;SDS011;3747;48.628;9.058;2023-09-08T09:01:37;5.60;;;5.20;;
7410;SDS011;3747;48.628;9.058;2023-09-08T09:04:06;5.75;;;5.20;;
7410;SDS011;3747;48.628;9.058;2023-09-08T09:06:34;5.78;;;5.10;;
7410;SDS011;3747;48.628;9.058;2023-09-08T09:09:02;5.45;;;4.80;;
7410;SDS011;3747;48.628;9.058;2023-09-08T09:11:30;5.65;;;5.15;;
7410;SDS011;3747;48.628;9.058;2023-09-08T09:13:57;6.00;;;5.50;;
7410;SDS011;3747;48.628;9.058;2023-09-08T09:16:24;5.07;;;4.63;;
7410;SDS011;3747;48.628;9.058;2023-09-08T09:18:55;5.43;;;4.90;;
7410;SDS011;3747;48.628;9.058;2023-09-08T09:21:23;5.47;;;5.07;;
7410;SDS011;3747;48.628;9.058;2023-09-08T09:23:50;5.57;;;5.15;;
7410;SDS011;3747;48.628;9.058;2023-09-08T09:26:25;5.20;;;4.80;;
7410;SDS011;3747;48.628;9.058;2023-09-08T09:28:55;5.30;;;4.80;;
7410;SDS011;3747;48.628;9.058;2023-09-08T09:31:24;5.38;;;4.90;;
7410;SDS011;3747;48.628;9.058;2023-09-08T09:34:01;6.10;;;5.43;;
7410;SDS011;3747;48.628;9.058;2023-09-08T09:36:29;6.03;;;5.53;;
7410;SDS011;3747;48.628;9.058;2023-09-08T09:38:58;5.50;;;4.82;;
7410;SDS011;3747;48.628;9.058;2023-09-08T09:41:27;5.60;;;5.20;;
7410;SDS011;3747;48.628;9.058;2023-09-08T09:43:54;5.88;;;5.28;;
7410;SDS011;3747;48.628;9.058;2023-09-08T09:46:22;5.72;;;5.22;;
7410;SDS011;3747;48.628;9.058;2023-09-08T09:48:50;5.82;;;5.18;;
7410;SDS011;3747;48.628;9.058;2023-09-08T09:51:21;6.15;;;5.40;;
7410;SDS011;3747;48.628;9.058;2023-09-08T09:53:49;7.55;;;5.32;;
7410;SDS011;3747;48.628;9.058;2023-09-08T09:56:16;5.22;;;4.70;;
7410;SDS011;3747;48.628;9.058;2023-09-08T09:58:45;5.47;;;4.97;;
7410;SDS011;3747;48.628;9.058;2023-09-08T10:01:14;5.30;;;4.93;;
7410;SDS011;3747;48.628;9.058;2023-09-08T10:03:43;5.70;;;5.20;;
7410;SDS011;3747;48.628;9.058;2023-09-08T10:06:10;6.30;;;5.28;;
7410;SDS011;3747;48.628;9.058;2023-09-08T10:08:38;6.80;;;4.93;;
7410;SDS011;3747;48.628;9.058;2023-09-08T10:11:06;5.38;;;4.97;;
7410;SDS011;3747;48.628;9.058;2023-09-08T10:13:38;5.05;;;4.70;;
7410;SDS011;3747;48.628;9.058;2023-09-08T10:16:10;5.20;;;4.78;;
7410;SDS011;3747;48.628;9.058;2023-09-08T10:18:42;6.05;;;5.63;;
7410;SDS011;3747;48.628;9.058;2023-09-08T10:21:11;5.88;;;5.45;;
7410;SDS011;3747;48.628;9.058;2023-09-08T10:23:41;5.10;;;4.78;;
7410;SDS011;3747;48.628;9.058;2023-09-08T10:26:12;6.43;;;5.68;;
7410;SDS011;3747;48.628;9.058;2023-09-08T10:28:43;5.15;;;4.78;;
7410;SDS011;3747;48.628;9.058;2023-09-08T10:31:12;5.78;;;5.25;;
7410;SDS011;3747;48.628;9.058;2023-09-08T10:33:41;5.45;;;5.05;;
7410;SDS011;3747;48.628;9.058;2023-09-08T10:36:10;7.32;;;5.95;;
7410;SDS011;3747;48.628;9.058;2023-09-08T10:38:39;6.05;;;4.95;;
7410;SDS011;3747;48.628;9.058;2023-09-08T10:41:26;5.47;;;5.13;;
7410;SDS011;3747;48.628;9.058;2023-09-08T10:43:59;6.25;;;5.63;;
7410;SDS011;3747;48.628;9.058;2023-09-08T10:46:31;5.72;;;5.32;;
7410;SDS011;3747;48.628;9.058;2023-09-08T10:49:03;5.20;;;4.80;;
7410;SDS011;3747;48.628;9.058;2023-09-08T10:51:33;5.68;;;5.18;;
7410;SDS011;3747;48.628;9.058;2023-09-08T10:54:00;4.95;;;4.50;;
7410;SDS011;3747;48.628;9.058;2023-09-08T10:56:47;5.50;;;5.10;;
7410;SDS011;3747;48.628;9.058;2023-09-08T10:59:19;6.57;;;5.28;;
7410;SDS011;3747;48.628;9.058;2023-09-08T11:01:51;6.72;;;5.65;;
7410;SDS011;3747;48.628;9.058;2023-09-08T11:04:21;5.80;;;5.40;;
7410;SDS011;3747;48.628;9.058;2023-09-08T11:06:50;6.70;;;5.50;;
7410;SDS011;3747;48.628;9.058;2023-09-08T11:09:16;5.75;;;5.20;;
7410;SDS011;3747;48.628;9.058;2023-09-08T11:11:46;5.70;;;5.30;;
7410;SDS011;3747;48.628;9.058;2023-09-08T11:14:13;5.22;;;4.72;;
7410;SDS011;3747;48.628;9.058;2023-09-08T11:16:41;5.70;;;5.07;;
7410;SDS011;3747;48.628;9.058;2023-09-08T11:19:10;6.30;;;5.68;;
7410;SDS011;3747;48.628;9.058;2023-09-08T11:21:38;5.07;;;4.75;;
7410;SDS011;3747;48.628;9.058;2023-09-08T11:24:05;6.05;;;4.60;;
7410;SDS011;3747;48.628;9.058;2023-09-08T11:26:35;4.93;;;4.53;;
7410;SDS011;3747;48.628;9.058;2023-09-08T11:29:03;9.40;;;4.78;;
7410;SDS011;3747;48.628;9.058;2023-09-08T11:31:32;4.70;;;4.40;;
7410;SDS011;3747;48.628;9.058;2023-09-08T11:33:59;5.32;;;4.72;;
7410;SDS011;3747;48.628;9.058;2023-09-08T11:36:28;4.93;;;4.45;;
7410;SDS011;3747;48.628;9.058;2023-09-08T11:38:56;4.95;;;4.63;;
7410;SDS011;3747;48.628;9.058;2023-09-08T11:41:24;4.93;;;4.63;;
7410;SDS011;3747;48.628;9.058;2023-09-08T11:43:52;5.32;;;4.88;;
7410;SDS011;3747;48.628;9.058;2023-09-08T11:46:19;4.97;;;4.68;;
7410;SDS011;3747;48.628;9.058;2023-09-08T11:48:46;5.38;;;4.88;;
7410;SDS011;3747;48.628;9.058;2023-09-08T11:51:13;4.60;;;4.30;;
7410;SDS011;3747;48.628;9.058;2023-09-08T11:53:44;4.82;;;4.43;;
7410;SDS011;3747;48.628;9.058;2023-09-08T11:59:25;5.63;;;4.80;;
7410;SDS011;3747;48.628;9.058;2023-09-08T12:01:52;4.93;;;4.53;;
7410;SDS011;3747;48.628;9.058;2023-09-08T12:04:20;5.45;;;4.97;;
7410;SDS011;3747;48.628;9.058;2023-09-08T12:06:47;4.43;;;4.13;;
7410;SDS011;3747;48.628;9.058;2023-09-08T12:09:16;5.75;;;5.25;;
7410;SDS011;3747;48.628;9.058;2023-09-08T12:11:43;5.00;;;4.63;;
7410;SDS011;3747;48.628;9.058;2023-09-08T12:14:10;6.90;;;5.05;;
7410;SDS011;3747;48.628;9.058;2023-09-08T12:16:38;4.78;;;4.35;;
7410;SDS011;3747;48.628;9.058;2023-09-08T12:19:06;5.28;;;4.80;;
7410;SDS011;3747;48.628;9.058;2023-09-08T12:21:35;5.63;;;5.13;;
7410;SDS011;3747;48.628;9.058;2023-09-08T12:24:22;6.90;;;5.07;;
7410;SDS011;3747;48.628;9.058;2023-09-08T12:27:23;5.57;;;5.10;;
7410;SDS011;3747;48.628;9.058;2023-09-08T12:29:54;5.45;;;5.05;;
7410;SDS011;3747;48.628;9.058;2023-09-08T12:32:32;5.80;;;4.95;;
7410;SDS011;3747;48.628;9.058;2023-09-08T12:34:59;5.05;;;4.57;;
7410;SDS011;3747;48.628;9.058;2023-09-08T12:37:28;5.35;;;4.95;;
7410;SDS011;3747;48.628;9.058;2023-09-08T12:39:58;5.68;;;4.97;;
7410;SDS011;3747;48.628;9.058;2023-09-08T12:42:27;5.97;;;5.03;;
7410;SDS011;3747;48.628;9.058;2023-09-08T12:44:55;5.43;;;4.93;;
7410;SDS011;3747;48.628;9.058;2023-09-08T12:47:22;6.50;;;5.10;;
7410;SDS011;3747;48.628;9.058;2023-09-08T12:49:50;6.47;;;5.22;;
7410;SDS011;3747;48.628;9.058;2023-09-08T12:52:18;5.05;;;4.65;;
7410;SDS011;3747;48.628;9.058;2023-09-08T12:54:53;6.28;;;4.97;;
7410;SDS011;3747;48.628;9.058;2023-09-08T12:57:24;5.32;;;4.82;;
7410;SDS011;3747;48.628;9.058;2023-09-08T12:59:51;5.47;;;5.05;;
7410;SDS011;3747;48.628;9.058;2023-09-08T13:02:18;5.53;;;5.05;;
7410;SDS011;3747;48.628;9.058;2023-09-08T13:04:46;6.97;;;5.30;;
7410;SDS011;3747;48.628;9.058;2023-09-08T13:07:13;5.10;;;4.60;;
7410;SDS011;3747;48.628;9.058;2023-09-08T13:09:40;7.30;;;5.28;;
7410;SDS011;3747;48.628;9.058;2023-09-08T13:12:07;5.53;;;5.03;;
7410;SDS011;3747;48.628;9.058;2023-09-08T13:14:36;5.72;;;5.15;;
7410;SDS011;3747;48.628;9.058;2023-09-08T13:17:03;5.32;;;4.88;;
7410;SDS011;3747;48.628;9.058;2023-09-08T13:19:30;5.82;;;5.22;;
7410;SDS011;3747;48.628;9.058;2023-09-08T13:22:04;5.05;;;4.63;;
7410;SDS011;3747;48.628;9.058;2023-09-08T13:24:31;5.45;;;4.95;;
7410;SDS011;3747;48.628;9.058;2023-09-08T13:26:59;5.22;;;4.82;;
7410;SDS011;3747;48.628;9.058;2023-09-08T13:32:11;6.30;;;5.30;;
7410;SDS011;3747;48.628;9.058;2023-09-08T13:34:38;5.28;;;4.88;;
7410;SDS011;3747;48.628;9.058;2023-09-08T13:37:05;6.38;;;5.88;;
7410;SDS011;3747;48.628;9.058;2023-09-08T13:39:33;6.35;;;5.80;;
7410;SDS011;3747;48.628;9.058;2023-09-08T13:42:00;6.68;;;6.07;;
7410;SDS011;3747;48.628;9.058;2023-09-08T13:44:29;5.72;;;5.22;;
7410;SDS011;3747;48.628;9.058;2023-09-08T13:47:03;6.30;;;5.80;;
7410;SDS011;3747;48.628;9.058;2023-09-08T13:49:31;6.20;;;5.43;;
7410;SDS011;3747;48.628;9.058;2023-09-08T13:51:58;6.70;;;5.40;;
7410;SDS011;3747;48.628;9.058;2023-09-08T13:54:34;5.63;;;5.15;;
7410;SDS011;3747;48.628;9.058;2023-09-08T13:57:02;6.47;;;5.78;;
7410;SDS011;3747;48.628;9.058;2023-09-08T13:59:33;6.55;;;5.88;;
7410;SDS011;3747;48.628;9.058;2023-09-08T14:02:03;5.97;;;5.53;;
7410;SDS011;3747;48.628;9.058;2023-09-08T14:04:31;5.88;;;5.38;;
7410;SDS011;3747;48.628;9.058;2023-09-08T14:06:58;6.50;;;5.90;;
7410;SDS011;3747;48.628;9.058;2023-09-08T14:09:25;6.25;;;5.75;;
7410;SDS011;3747;48.628;9.058;2023-09-08T14:11:53;7.03;;;6.00;;
7410;SDS011;3747;48.628;9.058;2023-09-08T14:14:22;6.00;;;5.50;;
7410;SDS011;3747;48.628;9.058;2023-09-08T14:16:51;6.57;;;5.97;;
7410;SDS011;3747;48.628;9.058;2023-09-08T14:19:19;6.43;;;5.82;;
7410;SDS011;3747;48.628;9.058;2023-09-08T14:21:46;6.18;;;5.55;;
7410;SDS011;3747;48.628;9.058;2023-09-08T14:24:14;6.85;;;6.18;;
7410;SDS011;3747;48.628;9.058;2023-09-08T14:26:41;6.60;;;5.93;;
7410;SDS011;3747;48.628;9.058;2023-09-08T14:29:08;6.70;;;6.07;;
7410;SDS011;3747;48.628;9.058;2023-09-08T14:31:36;6.90;;;6.30;;
7410;SDS011;3747;48.628;9.058;2023-09-08T14:34:03;6.07;;;5.65;;
7410;SDS011;3747;48.628;9.058;2023-09-08T14:36:32;6.28;;;5.78;;
7410;SDS011;3747;48.628;9.058;2023-09-08T14:39:00;6.10;;;5.50;;
7410;SDS011;3747;48.628;9.058;2023-09-08T14:41:30;6.93;;;6.32;;
7410;SDS011;3747;48.628;9.058;2023-09-08T14:43:59;6.53;;;5.95;;
7410;SDS011;3747;48.628;9.058;2023-09-08T14:46:26;7.10;;;5.82;;
7410;SDS011;3747;48.628;9.058;2023-09-08T14:48:52;6.82;;;6.13;;
7410;SDS011;3747;48.628;9.058;2023-09-08T14:51:20;6.90;;;6.20;;
7410;SDS011;3747;48.628;9.058;2023-09-08T14:53:49;6.18;;;5.68;;
7410;SDS011;3747;48.628;9.058;2023-09-08T14:56:17;6.50;;;6.00;;
7410;SDS011;3747;48.628;9.058;2023-09-08T14:58:46;6.13;;;5.63;;
7410;SDS011;3747;48.628;9.058;2023-09-08T15:01:13;6.82;;;6.13;;
7410;SDS011;3747;48.628;9.058;2023-09-08T15:03:41;6.90;;;6.30;;
7410;SDS011;3747;48.628;9.058;2023-09-08T15:06:08;7.47;;;6.07;;
7410;SDS011;3747;48.628;9.058;2023-09-08T15:08:35;6.72;;;6.18;;
7410;SDS011;3747;48.628;9.058;2023-09-08T15:11:09;6.15;;;5.47;;
7410;SDS011;3747;48.628;9.058;2023-09-08T15:16:14;6.90;;;5.50;;
7410;SDS011;3747;48.628;9.058;2023-09-08T15:18:41;6.60;;;5.75;;
7410;SDS011;3747;48.628;9.058;2023-09-08T15:21:09;5.78;;;4.90;;
7410;SDS011;3747;48.628;9.058;2023-09-08T15:23:42;6.22;;;5.47;;